createdAt,value
2018-08-18T00:00:18.358Z,0.80
2018-08-18T00:02:47.063Z,1.00
2018-08-18T00:05:16.527Z,1.03
2018-08-18T00:07:45.194Z,0.83
2018-08-18T00:10:16.230Z,0.87
2018-08-18T00:12:45.894Z,0.80
2018-08-18T00:15:14.684Z,1.00
2018-08-18T00:17:43.367Z,0.93
2018-08-18T00:20:15.076Z,0.73
2018-08-18T00:22:43.605Z,0.70
2018-08-18T00:25:12.219Z,1.07
2018-08-18T00:27:40.826Z,0.80
2018-08-18T00:30:15.567Z,0.90
2018-08-18T00:32:44.554Z,1.00
2018-08-18T00:35:13.771Z,1.10
2018-08-18T00:37:42.375Z,1.20
2018-08-18T00:40:12.086Z,1.00
2018-08-18T00:42:41.020Z,1.10
2018-08-18T00:45:11.350Z,1.00
2018-08-18T00:47:40.334Z,1.10
2018-08-18T00:50:09.899Z,1.07
2018-08-18T00:52:38.786Z,0.83
2018-08-18T00:55:07.572Z,1.20
2018-08-18T00:57:36.203Z,1.00
2018-08-18T01:00:06.890Z,0.87
2018-08-18T01:02:35.798Z,1.20
2018-08-18T01:05:05.619Z,1.03
2018-08-18T01:07:34.784Z,1.07
2018-08-18T01:10:03.779Z,0.90
2018-08-18T01:12:33.263Z,1.17
2018-08-18T01:15:01.836Z,0.97
2018-08-18T01:17:30.511Z,0.90
2018-08-18T01:19:59.868Z,0.80
2018-08-18T01:22:28.497Z,0.83
2018-08-18T01:24:57.143Z,0.70
2018-08-18T01:27:25.770Z,0.77
2018-08-18T01:29:59.698Z,0.70
2018-08-18T01:32:28.426Z,1.20
2018-08-18T01:34:57.031Z,0.93
2018-08-18T01:37:25.602Z,1.03
2018-08-18T01:39:55.346Z,0.80
2018-08-18T01:42:24.335Z,0.70
2018-08-18T01:44:53.923Z,0.80
2018-08-18T01:47:22.966Z,0.90
2018-08-18T01:49:51.595Z,0.90
2018-08-18T01:52:23.370Z,0.90
2018-08-18T01:54:52.712Z,0.97
2018-08-18T01:57:22.486Z,1.10
2018-08-18T01:59:51.361Z,0.83
2018-08-18T02:02:22.536Z,1.20
2018-08-18T02:04:51.423Z,0.70
2018-08-18T02:07:30.768Z,1.43
2018-08-18T02:09:59.362Z,0.80
2018-08-18T02:12:28.195Z,0.80
2018-08-18T02:14:57.264Z,1.10
2018-08-18T02:17:33.641Z,0.70
2018-08-18T02:20:02.641Z,1.00
2018-08-18T02:22:32.058Z,0.70
2018-08-18T02:25:01.151Z,0.97
2018-08-18T02:27:29.665Z,0.93
2018-08-18T02:30:09.532Z,1.10
2018-08-18T02:32:39.194Z,1.30
2018-08-18T02:35:08.687Z,0.90
2018-08-18T02:37:38.288Z,0.80
2018-08-18T02:40:09.347Z,0.90
2018-08-18T02:42:38.483Z,0.90
2018-08-18T02:45:08.346Z,0.93
2018-08-18T02:47:37.386Z,0.80
2018-08-18T02:50:07.258Z,1.13
2018-08-18T02:52:36.401Z,1.00
2018-08-18T02:55:07.250Z,1.00
2018-08-18T02:57:38.650Z,0.97
2018-08-18T03:00:09.187Z,1.07
2018-08-18T03:02:38.667Z,0.97
2018-08-18T03:05:07.712Z,0.90
2018-08-18T03:07:39.400Z,0.90
2018-08-18T03:10:14.475Z,0.70
2018-08-18T03:12:45.922Z,0.95
2018-08-18T03:15:34.347Z,0.73
2018-08-18T03:18:02.985Z,0.90
2018-08-18T03:20:31.518Z,1.00
2018-08-18T03:23:00.043Z,1.23
2018-08-18T03:25:39.689Z,0.80
2018-08-18T03:28:08.327Z,1.17
2018-08-18T03:30:38.187Z,0.97
2018-08-18T03:33:07.043Z,0.80
2018-08-18T03:35:35.665Z,0.77
2018-08-18T03:38:04.243Z,0.90
2018-08-18T03:40:32.812Z,0.90
2018-08-18T03:43:01.314Z,0.80
2018-08-18T03:45:29.839Z,1.20
2018-08-18T03:47:58.472Z,0.87
2018-08-18T03:50:41.186Z,1.03
2018-08-18T03:53:09.715Z,1.10
2018-08-18T03:55:39.427Z,1.27
2018-08-18T03:58:08.675Z,1.57
2018-08-18T04:00:37.278Z,1.10
2018-08-18T04:03:06.023Z,1.20
2018-08-18T04:05:34.683Z,0.80
2018-08-18T04:08:03.315Z,1.37
2018-08-18T04:10:31.974Z,1.30
2018-08-18T04:13:02.221Z,1.20
2018-08-18T04:15:30.824Z,1.03
2018-08-18T04:18:03.495Z,1.13
2018-08-18T04:20:32.026Z,1.10
2018-08-18T04:23:01.780Z,1.10
2018-08-18T04:25:30.307Z,1.20
2018-08-18T04:27:58.837Z,1.10
2018-08-18T04:30:27.323Z,1.20
2018-08-18T04:32:59.803Z,1.00
2018-08-18T04:35:29.454Z,0.67
2018-08-18T04:37:59.050Z,0.80
2018-08-18T04:40:27.830Z,0.80
2018-08-18T04:42:56.794Z,0.83
2018-08-18T04:45:25.535Z,0.87
2018-08-18T04:47:54.155Z,0.63
2018-08-18T04:50:23.210Z,0.73
2018-08-18T04:52:53.974Z,1.17
2018-08-18T04:55:22.843Z,0.73
2018-08-18T04:57:51.661Z,0.77
2018-08-18T05:00:20.400Z,1.03
2018-08-18T05:02:53.146Z,0.63
2018-08-18T05:05:27.041Z,1.07
2018-08-18T05:07:57.174Z,0.87
2018-08-18T05:10:25.907Z,0.90
2018-08-18T05:12:54.459Z,0.60
2018-08-18T05:15:23.007Z,0.87
2018-08-18T05:17:51.637Z,0.53
2018-08-18T05:20:22.928Z,0.87
2018-08-18T05:22:51.587Z,0.90
2018-08-18T05:25:27.078Z,0.77
2018-08-18T05:27:56.270Z,0.80
2018-08-18T05:30:25.417Z,0.83
2018-08-18T05:32:54.046Z,0.70
2018-08-18T05:35:22.731Z,0.80
2018-08-18T05:37:51.318Z,0.70
2018-08-18T05:40:19.942Z,0.90
2018-08-18T05:42:48.686Z,0.90
2018-08-18T05:45:27.300Z,0.80
2018-08-18T05:47:56.154Z,0.90
2018-08-18T05:50:26.536Z,0.80
2018-08-18T05:52:58.198Z,1.07
2018-08-18T05:55:27.101Z,0.90
2018-08-18T05:57:55.623Z,0.70
2018-08-18T06:00:25.471Z,0.60
2018-08-18T06:02:59.630Z,0.97
2018-08-18T06:05:30.058Z,1.17
2018-08-18T06:07:59.503Z,0.70
2018-08-18T06:10:28.693Z,0.80
2018-08-18T06:12:58.288Z,0.80
2018-08-18T06:15:27.027Z,0.80
2018-08-18T06:17:55.616Z,0.87
2018-08-18T06:20:24.210Z,0.80
2018-08-18T06:22:52.824Z,0.80
2018-08-18T06:25:21.515Z,0.93
2018-08-18T06:27:50.027Z,0.60
2018-08-18T06:30:19.969Z,0.70
2018-08-18T06:32:48.643Z,0.60
2018-08-18T06:35:17.263Z,0.60
2018-08-18T06:37:50.069Z,0.70
2018-08-18T06:40:18.675Z,0.80
2018-08-18T06:42:47.350Z,0.87
2018-08-18T06:45:19.614Z,0.70
2018-08-18T06:47:48.392Z,0.80
2018-08-18T06:50:18.054Z,0.80
2018-08-18T06:52:47.365Z,1.00
2018-08-18T06:55:18.517Z,0.90
2018-08-18T06:57:52.367Z,0.80
2018-08-18T07:00:22.518Z,0.78
2018-08-18T07:02:51.122Z,1.13
2018-08-18T07:05:20.620Z,0.90
2018-08-18T07:07:50.271Z,0.70
2018-08-18T07:10:30.162Z,1.10
2018-08-18T07:13:02.850Z,0.90
2018-08-18T07:15:36.750Z,0.88
2018-08-18T07:18:06.817Z,1.17
2018-08-18T07:20:35.504Z,1.00
2018-08-18T07:23:04.151Z,1.00
2018-08-18T07:25:32.833Z,1.25
2018-08-18T07:28:06.939Z,0.90
2018-08-18T07:30:35.549Z,1.00
2018-08-18T07:33:04.256Z,0.70
2018-08-18T07:35:32.846Z,1.00
2018-08-18T07:38:01.524Z,1.20
2018-08-18T07:40:40.538Z,1.17
2018-08-18T07:43:09.441Z,0.95
2018-08-18T07:45:38.671Z,0.98
2018-08-18T07:48:08.335Z,1.00
2018-08-18T07:50:37.037Z,1.10
2018-08-18T07:53:05.846Z,0.95
2018-08-18T07:55:34.506Z,0.65
2018-08-18T07:58:04.687Z,0.90
2018-08-18T08:00:34.518Z,0.62
2018-08-18T08:03:03.394Z,0.68
2018-08-18T08:05:32.496Z,0.82
2018-08-18T08:08:01.319Z,1.42
2018-08-18T08:10:30.142Z,0.72
2018-08-18T08:12:59.050Z,1.30
2018-08-18T08:15:27.657Z,0.90
2018-08-18T08:17:56.411Z,1.32
2018-08-18T08:20:25.086Z,1.10
2018-08-18T08:22:55.016Z,0.80
2018-08-18T08:25:23.562Z,0.88
2018-08-18T08:27:53.298Z,0.98
2018-08-18T08:30:23.339Z,0.90
2018-08-18T08:32:52.106Z,0.78
2018-08-18T08:35:20.994Z,0.93
2018-08-18T08:37:52.789Z,0.90
2018-08-18T08:40:22.459Z,1.07
2018-08-18T08:42:51.139Z,0.85
2018-08-18T08:45:20.915Z,0.75
2018-08-18T08:47:50.005Z,0.80
2018-08-18T08:50:21.999Z,0.93
2018-08-18T08:52:51.926Z,0.80
2018-08-18T08:55:21.856Z,1.20
2018-08-18T08:57:50.583Z,0.95
2018-08-18T09:00:19.166Z,1.40
2018-08-18T09:02:48.059Z,0.88
2018-08-18T09:05:17.666Z,0.90
2018-08-18T09:07:46.451Z,1.20
2018-08-18T09:10:15.709Z,0.93
2018-08-18T09:12:44.337Z,1.00
2018-08-18T09:15:14.639Z,0.90
2018-08-18T09:17:43.325Z,0.98
2018-08-18T09:20:14.679Z,0.95
2018-08-18T09:22:55.578Z,0.88
2018-08-18T09:25:24.311Z,0.95
2018-08-18T09:27:54.740Z,0.90
2018-08-18T09:30:24.537Z,0.95
2018-08-18T09:32:53.175Z,1.00
2018-08-18T09:35:21.855Z,1.12
2018-08-18T09:37:55.717Z,1.20
2018-08-18T09:40:24.390Z,0.93
2018-08-18T09:42:53.033Z,1.35
2018-08-18T09:45:21.722Z,0.98
2018-08-18T09:47:50.401Z,1.50
2018-08-18T09:50:19.399Z,1.07
2018-08-18T09:52:48.646Z,1.00
2018-08-18T09:55:17.685Z,1.07
2018-08-18T09:57:46.219Z,1.00
2018-08-18T10:00:15.876Z,0.68
2018-08-18T10:02:44.971Z,0.98
2018-08-18T10:05:13.607Z,0.90
2018-08-18T10:07:42.516Z,0.90
2018-08-18T10:10:13.442Z,0.80
2018-08-18T10:12:42.070Z,0.80
2018-08-18T10:15:10.654Z,1.05
2018-08-18T10:17:39.234Z,0.98
2018-08-18T10:20:08.282Z,0.85
2018-08-18T10:22:37.919Z,1.15
2018-08-18T10:25:07.077Z,0.70
2018-08-18T10:27:35.650Z,1.20
2018-08-18T10:30:04.991Z,0.82
2018-08-18T10:32:35.243Z,0.80
2018-08-18T10:35:03.975Z,1.17
2018-08-18T10:37:32.607Z,0.80
2018-08-18T10:40:07.233Z,1.05
2018-08-18T10:42:35.816Z,0.98
2018-08-18T10:45:05.222Z,1.10
2018-08-18T10:47:33.850Z,1.00
2018-08-18T10:50:49.266Z,1.55
2018-08-18T10:53:17.807Z,1.00
2018-08-18T10:55:46.446Z,1.15
2018-08-18T10:58:25.174Z,1.00
2018-08-18T11:00:53.824Z,1.00
2018-08-18T11:03:22.479Z,0.72
2018-08-18T11:05:51.040Z,1.10
2018-08-18T11:08:19.623Z,0.70
2018-08-18T11:10:48.213Z,1.20
2018-08-18T11:13:18.612Z,0.90
2018-08-18T11:15:47.178Z,1.17
2018-08-18T11:18:15.789Z,0.93
2018-08-18T11:20:44.427Z,1.25
2018-08-18T11:23:13.794Z,1.07
2018-08-18T11:25:49.426Z,1.10
2018-08-18T11:28:18.977Z,1.30
2018-08-18T11:30:47.718Z,0.95
2018-08-18T11:33:47.527Z,1.00
2018-08-18T11:36:16.100Z,0.80
2018-08-18T11:38:44.788Z,1.00
2018-08-18T11:41:13.473Z,1.42
2018-08-18T11:43:47.520Z,1.02
2018-08-18T11:46:16.802Z,1.25
2018-08-18T11:48:45.389Z,1.07
2018-08-18T11:51:13.982Z,1.15
2018-08-18T11:53:55.637Z,1.00
2018-08-18T11:56:24.216Z,0.88
2018-08-18T11:59:05.320Z,1.05
2018-08-18T12:01:38.584Z,1.25
2018-08-18T12:04:07.476Z,1.50
2018-08-18T12:06:41.506Z,1.20
2018-08-18T12:09:10.419Z,0.82
2018-08-18T12:11:39.274Z,1.07
2018-08-18T12:14:07.848Z,0.90
2018-08-18T12:16:36.826Z,0.90
2018-08-18T12:19:05.607Z,1.10
2018-08-18T12:21:38.794Z,1.02
2018-08-18T12:24:07.403Z,1.00
2018-08-18T12:26:36.088Z,1.10
2018-08-18T12:29:04.773Z,1.30
2018-08-18T12:31:33.361Z,0.80
2018-08-18T12:34:01.987Z,0.80
2018-08-18T12:36:30.706Z,0.68
2018-08-18T12:38:59.265Z,0.98
2018-08-18T12:41:27.791Z,0.80
2018-08-18T12:43:57.973Z,0.95
2018-08-18T12:46:35.787Z,1.10
2018-08-18T12:49:05.894Z,1.02
2018-08-18T12:51:35.024Z,0.82
2018-08-18T12:54:03.776Z,1.40
2018-08-18T12:56:32.395Z,1.40
2018-08-18T12:59:01.182Z,0.95
2018-08-18T13:01:41.476Z,1.27
2018-08-18T13:04:12.065Z,1.00
2018-08-18T13:06:48.939Z,1.00
2018-08-18T13:09:19.254Z,1.22
2018-08-18T13:11:49.203Z,1.30
2018-08-18T13:14:20.292Z,0.98
2018-08-18T13:16:49.678Z,1.25
2018-08-18T13:19:20.330Z,1.12
2018-08-18T13:21:49.046Z,0.90
2018-08-18T13:24:17.703Z,1.35
2018-08-18T13:26:46.622Z,1.22
2018-08-18T13:29:15.253Z,1.27
2018-08-18T13:31:44.790Z,1.12
2018-08-18T13:34:15.674Z,1.17
2018-08-18T13:36:45.152Z,1.10
2018-08-18T13:39:15.114Z,1.42
2018-08-18T13:41:44.878Z,1.20
2018-08-18T13:44:28.703Z,1.30
2018-08-18T13:46:57.301Z,1.40
2018-08-18T13:49:26.955Z,1.17
2018-08-18T13:51:55.593Z,1.12
2018-08-18T13:54:24.180Z,1.10
2018-08-18T13:56:52.866Z,1.10
2018-08-18T14:02:16.107Z,1.25
2018-08-18T14:04:44.869Z,1.82
2018-08-18T14:07:14.063Z,0.95
2018-08-18T14:09:43.991Z,1.00
2018-08-18T14:12:16.887Z,1.40
2018-08-18T14:14:46.325Z,1.50
2018-08-18T14:17:15.788Z,1.10
2018-08-18T14:19:44.720Z,1.47
2018-08-18T14:22:13.402Z,1.02
2018-08-18T14:24:42.497Z,1.20
2018-08-18T14:27:17.485Z,1.50
2018-08-18T14:29:46.216Z,1.62
2018-08-18T14:32:20.021Z,1.30
2018-08-18T14:34:57.783Z,1.45
2018-08-18T14:37:26.460Z,1.50
2018-08-18T14:39:55.194Z,1.35
2018-08-18T14:42:23.720Z,1.30
2018-08-18T14:44:55.449Z,1.70
2018-08-18T14:47:24.670Z,1.70
2018-08-18T14:50:07.236Z,1.22
2018-08-18T14:52:35.736Z,1.65
2018-08-18T14:55:04.349Z,1.45
2018-08-18T14:57:35.056Z,1.60
2018-08-18T15:00:03.675Z,1.75
2018-08-18T15:02:32.407Z,1.60
2018-08-18T15:05:00.988Z,1.87
2018-08-18T15:07:30.819Z,1.72
2018-08-18T15:09:59.490Z,1.60
2018-08-18T15:12:28.011Z,1.67
2018-08-18T15:14:56.635Z,1.72
2018-08-18T15:17:25.156Z,1.67
2018-08-18T15:19:54.376Z,1.82
2018-08-18T15:22:23.013Z,1.55
2018-08-18T15:24:51.698Z,2.12
2018-08-18T15:27:20.384Z,1.75
2018-08-18T15:29:49.670Z,1.70
2018-08-18T15:32:18.370Z,1.80
2018-08-18T15:34:46.877Z,1.70
2018-08-18T15:37:15.471Z,1.72
2018-08-18T15:39:44.079Z,1.72
2018-08-18T15:42:12.704Z,1.65
2018-08-18T15:44:52.184Z,1.70
2018-08-18T15:47:20.766Z,1.37
2018-08-18T15:49:49.405Z,1.65
2018-08-18T15:52:19.605Z,1.72
2018-08-18T15:54:48.266Z,2.00
2018-08-18T15:57:16.894Z,2.00
2018-08-18T15:59:45.585Z,1.80
2018-08-18T16:02:14.092Z,2.15
2018-08-18T16:04:42.744Z,1.90
2018-08-18T16:07:11.341Z,1.98
2018-08-18T16:09:40.072Z,1.90
2018-08-18T16:12:08.697Z,2.22
2018-08-18T16:14:37.191Z,1.52
2018-08-18T16:17:05.822Z,2.15
2018-08-18T16:19:35.717Z,2.02
2018-08-18T16:22:05.179Z,2.40
2018-08-18T16:24:39.346Z,2.27
2018-08-18T16:27:08.470Z,2.65
2018-08-18T16:29:37.626Z,2.20
2018-08-18T16:32:27.469Z,2.20
2018-08-18T16:35:02.538Z,3.15
2018-08-18T16:37:31.712Z,2.80
2018-08-18T16:40:00.704Z,2.05
2018-08-18T16:42:29.599Z,1.85
2018-08-18T16:44:58.319Z,2.37
2018-08-18T16:47:27.031Z,2.95
2018-08-18T16:49:56.338Z,2.25
2018-08-18T16:52:25.040Z,2.20
2018-08-18T16:54:54.326Z,2.67
2018-08-18T16:57:24.298Z,2.02
2018-08-18T16:59:52.875Z,2.05
2018-08-18T17:02:34.311Z,2.85
2018-08-18T17:05:02.867Z,2.02
2018-08-18T17:07:33.338Z,2.17
2018-08-18T17:10:01.946Z,2.60
2018-08-18T17:12:31.563Z,1.95
2018-08-18T17:15:00.126Z,2.50
2018-08-18T17:17:28.707Z,2.50
2018-08-18T17:19:57.372Z,2.80
2018-08-18T17:22:25.875Z,2.27
2018-08-18T17:24:55.359Z,2.65
2018-08-18T17:27:24.012Z,2.33
2018-08-18T17:29:53.460Z,2.40
2018-08-18T17:32:22.123Z,2.75
2018-08-18T17:34:50.670Z,2.60
2018-08-18T17:37:19.397Z,2.65
2018-08-18T17:39:48.113Z,2.75
2018-08-18T17:42:16.715Z,2.85
2018-08-18T17:44:45.441Z,2.30
2018-08-18T17:47:14.848Z,2.47
2018-08-18T17:49:48.868Z,2.55
2018-08-18T17:52:17.608Z,2.42
2018-08-18T17:55:01.443Z,2.90
2018-08-18T17:57:30.033Z,2.98
2018-08-18T17:59:58.755Z,3.25
2018-08-18T18:02:27.375Z,3.50
2018-08-18T18:05:01.084Z,3.50
2018-08-18T18:07:29.628Z,3.15
2018-08-18T18:09:58.321Z,3.27
2018-08-18T18:12:27.947Z,3.05
2018-08-18T18:14:56.958Z,3.10
2018-08-18T18:17:26.183Z,3.47
2018-08-18T18:19:57.344Z,3.65
2018-08-18T18:22:39.910Z,3.05
2018-08-18T18:25:08.464Z,3.33
2018-08-18T18:27:37.111Z,2.92
2018-08-18T18:30:05.950Z,3.05
2018-08-18T18:32:34.526Z,3.20
2018-08-18T18:35:03.278Z,3.30
2018-08-18T18:37:31.732Z,2.85
2018-08-18T18:40:03.829Z,3.12
2018-08-18T18:42:32.462Z,2.92
2018-08-18T18:45:01.003Z,2.83
2018-08-18T18:47:29.851Z,2.72
2018-08-18T18:49:58.477Z,2.70
2018-08-18T18:52:27.057Z,2.72
2018-08-18T18:54:57.895Z,2.37
2018-08-18T18:57:26.784Z,2.20
2018-08-18T18:59:56.896Z,2.80
2018-08-18T19:02:28.279Z,2.83
2018-08-18T19:04:56.878Z,2.95
2018-08-18T19:07:25.442Z,2.15
2018-08-18T19:09:59.018Z,2.02
2018-08-18T19:12:27.587Z,2.45
2018-08-18T19:14:56.136Z,2.42
2018-08-18T19:17:24.650Z,2.25
2018-08-18T19:20:02.963Z,2.02
2018-08-18T19:22:31.498Z,2.62
2018-08-18T19:25:00.182Z,2.27
2018-08-18T19:27:28.761Z,2.95
2018-08-18T19:29:57.465Z,2.60
2018-08-18T19:32:26.047Z,2.50
2018-08-18T19:34:54.678Z,3.27
2018-08-18T19:37:23.261Z,2.47
2018-08-18T19:39:51.907Z,2.42
2018-08-18T19:42:20.468Z,2.70
2018-08-18T19:44:51.446Z,2.55
2018-08-18T19:47:25.269Z,2.27
2018-08-18T19:49:53.961Z,2.50
2018-08-18T19:52:23.159Z,2.40
2018-08-18T19:54:52.619Z,2.17
2018-08-18T19:57:27.847Z,2.33
2018-08-18T20:00:01.918Z,2.35
2018-08-18T20:02:43.206Z,2.70
2018-08-18T20:05:11.774Z,2.20
2018-08-18T20:07:40.354Z,2.83
2018-08-18T20:10:08.989Z,2.90
2018-08-18T20:12:37.623Z,2.58
2018-08-18T20:15:06.491Z,2.77
2018-08-18T20:17:35.063Z,2.80
2018-08-18T20:20:03.686Z,2.65
2018-08-18T20:22:32.270Z,2.70
2018-08-18T20:25:01.662Z,3.20
2018-08-18T20:27:30.300Z,2.40
2018-08-18T20:29:58.870Z,2.77
2018-08-18T20:32:27.431Z,2.60
2018-08-18T20:34:56.026Z,2.05
2018-08-18T20:37:24.575Z,1.60
2018-08-18T20:39:53.466Z,1.20
2018-08-18T20:42:27.681Z,1.30
2018-08-18T20:44:58.824Z,1.30
2018-08-18T20:47:29.928Z,1.20
2018-08-18T20:49:58.754Z,1.40
2018-08-18T20:52:28.506Z,1.52
2018-08-18T20:54:58.020Z,1.85
2018-08-18T20:57:26.622Z,1.60
2018-08-18T20:59:55.176Z,1.90
2018-08-18T21:02:23.821Z,1.93
2018-08-18T21:05:01.212Z,2.00
2018-08-18T21:07:31.887Z,2.00
2018-08-18T21:10:01.398Z,2.50
2018-08-18T21:12:48.246Z,2.40
2018-08-18T21:15:17.415Z,2.15
2018-08-18T21:17:46.120Z,2.02
2018-08-18T21:20:17.384Z,2.35
2018-08-18T21:22:45.968Z,2.00
2018-08-18T21:25:15.676Z,2.15
2018-08-18T21:27:44.464Z,1.98
2018-08-18T21:30:15.943Z,1.77
2018-08-18T21:32:44.599Z,1.75
2018-08-18T21:35:13.232Z,2.22
2018-08-18T21:37:41.999Z,1.73
2018-08-18T21:40:11.234Z,2.17
2018-08-18T21:42:39.811Z,2.20
2018-08-18T21:45:11.151Z,2.03
2018-08-18T21:47:39.778Z,2.00
2018-08-18T21:50:08.338Z,2.13
2018-08-18T21:52:36.949Z,2.12
2018-08-18T21:55:05.671Z,2.20
2018-08-18T21:57:46.505Z,3.02
2018-08-18T22:00:15.764Z,3.20
2018-08-18T22:02:44.483Z,3.40
2018-08-18T22:05:14.353Z,3.65
2018-08-18T22:07:50.772Z,3.15
2018-08-18T22:10:19.330Z,3.30
2018-08-18T22:12:47.985Z,3.52
2018-08-18T22:15:21.230Z,3.35
2018-08-18T22:17:52.327Z,3.87
2018-08-18T22:20:22.287Z,2.92
2018-08-18T22:22:51.971Z,3.40
2018-08-18T22:25:20.470Z,3.12
2018-08-18T22:27:53.402Z,2.60
2018-08-18T22:30:25.899Z,2.98
2018-08-18T22:32:54.528Z,2.80
2018-08-18T22:35:23.934Z,3.00
2018-08-18T22:37:52.546Z,2.87
2018-08-18T22:40:21.109Z,2.30
2018-08-18T22:42:49.770Z,1.30
2018-08-18T22:45:29.004Z,1.47
2018-08-18T22:47:57.618Z,1.35
2018-08-18T22:50:26.214Z,1.30
2018-08-18T22:52:55.369Z,2.07
2018-08-18T22:55:23.904Z,2.00
2018-08-18T22:57:58.666Z,2.25
2018-08-18T23:00:27.506Z,2.27
2018-08-18T23:02:56.091Z,2.50
2018-08-18T23:05:24.631Z,2.25
2018-08-18T23:07:54.999Z,2.30
2018-08-18T23:10:26.110Z,1.87
2018-08-18T23:12:54.680Z,2.00
2018-08-18T23:15:23.191Z,1.67
2018-08-18T23:17:51.798Z,1.67
2018-08-18T23:20:20.534Z,1.77
2018-08-18T23:22:59.435Z,1.83
2018-08-18T23:25:30.374Z,1.63
2018-08-18T23:27:59.128Z,1.30
2018-08-18T23:30:35.798Z,1.53
2018-08-18T23:33:06.154Z,1.70
2018-08-18T23:35:35.272Z,1.43
2018-08-18T23:38:04.227Z,1.17
2018-08-18T23:40:33.203Z,1.67
2018-08-18T23:43:01.891Z,1.10
2018-08-18T23:45:36.623Z,1.03
2018-08-18T23:48:07.141Z,1.00
2018-08-18T23:50:37.246Z,0.90
2018-08-18T23:53:07.834Z,0.83
2018-08-18T23:55:39.619Z,0.80
2018-08-18T23:58:08.123Z,0.90
